Nearby METAR Reports

 

NZWN - Wellington Intl, New Zealand
Distance from station: SSE 156km
Updated: Fri, 17-Aug-2018 9:00pm NZST
Mostly cloudy
Mostly cloudy
 Wind from SE
Wind: SE 7 km/h
Temperature: 11°C
Dew Point: 6°C
Humidity: 72%
Barometer: 1001 hPa
Clouds: Mostly cloudy
Visibility: 10 km
Cloud details: Mostly cloudy 1981 m
2018/08/17 09:00 NZWN 170900Z AUTO 14004KT 100V180 9999 BKN065/// 11/06 Q1001 NOSIG
NZAA - Auckland Intl Ar, New Zealand
Distance from station: N 334km
Updated: Fri, 17-Aug-2018 9:00pm NZST
Nearby showers, Few clouds
Nearby showers, Few clouds
 Wind from WNW
Wind: WNW 17 km/h
Temperature: 12°C
Dew Point: 9°C
Humidity: 82%
Barometer: 1006 hPa
Summary: Nearby Showers
Clouds: Few Clouds
Visibility: 10 km
Cloud details: Few Clouds 2286 m
2018/08/17 09:00 NZAA 170900Z AUTO 29009KT 9999 VCSH FEW075/// 12/09 Q1006 TEMPO 7000 SHRA
 
NZWP - Whenuapai (nz-Af, New Zealand
Distance from station: N 359km
Updated: Tue, 14-Aug-2018 3:00pm NZST
NOT Current
Nearby showers, Partly cloudy
Nearby showers, Partly cloudy
 Wind from W
Wind: W 46 km/h, Gust: 67 km/h
Temperature: 14°C
Dew Point: 5°C
Humidity: 55%
Barometer: 998 hPa
Summary: Nearby Showers
Clouds: Partly cloudy
Cloud details: Few Clouds 762 m
Partly cloudy 1341 m
2018/08/14 03:00 NZWP 140300Z 27025G36KT 15KM VCSH FEW025TCU SCT044 14/05 Q0998 TEMPO 5000 +SHRA BKN012 FEW020TCU BECMG FM0400 27035G45KT
NZCH - Christchurch Int, New Zealand
Distance from station: SSW 412km
Updated: Fri, 17-Aug-2018 9:00pm NZST
Light rain, Overcast
Light rain, Overcast
 Wind from WSW
Wind: WSW 26 km/h
Temperature: 6°C
Wind Chill: 2°C
Dew Point: 4°C
Humidity: 87%
Barometer: 1004 hPa
Summary: Light rain
Clouds: Overcast
Visibility: 10 km
Cloud details: Few Clouds 274 m
Overcast 945 m
2018/08/17 09:00 NZCH 170900Z AUTO 24014KT 9999 -RA FEW009/// OVC031/// 06/04 Q1004 TEMPO 4000 RA BKN008

Metar display script from Saratoga-Weather.org